Station: Mount Nowa Nowa  

  Atmospheric Gas Attenuation - ITU Rec 676-11   ----------------- dB/100km -----------------
Date Time Temp RH % AH g/m3 Dew Point Wind Direction Speed kph Gust kph Barometer mB Rainfall Since 9am 24GHz 47GHz 76GHz 122GHz 134GHz 241GHz
08/05 12:30 12.7 73 8.13 8 32 54 1013.1 0 18.6 25.4 38.4 100.8 93.5 321.4
08/05 12:20 12.7 73 8.13 8 35 50 1013.1 0 18.6 25.4 38.4 100.8 93.5 321.4
08/05 12:10 12.9 73 8.23 8.3 20 28 1013.1 0 18.8 25.5 38.8 101.6 94.6 325.2
08/05 12:00 12.6 77 8.52 8.7 26 48 1013.1 0 19.5 26.1 40.1 105.2 98.9 339.9
08/05 11:50 12.5 76 8.36 8.4 30 39 1013.1 0 19.1 25.9 39.5 103.6 96.8 332.9
08/05 11:40 12.5 75 8.25 8.2 30 52 1013.1 0 18.9 25.7 39.0 102.4 95.4 327.7
08/05 11:30 12.6 75 8.3 8.3 26 50 1013.1 0 19.0 25.7 39.2 102.8 95.9 329.6
08/05 11:20 12.6 75 8.3 8.3 17 22 1013.1 0 19.0 25.7 39.2 102.8 95.9 329.6
08/05 11:10 12.4 75 8.2 8.1 26 35 1013.1 0 18.8 25.6 38.9 102.0 94.8 325.8
08/05 11:00 12.3 76 8.25 8.2 24 50 1013.1 0 18.9 25.8 39.1 102.6 95.6 328.6
08/05 10:50 12.3 75 8.14 8 30 43 1013.1 0 18.7 25.6 38.7 101.5 94.2 323.5
08/05 10:40 12.3 75 8.14 8 32 43 1013.1 0 18.7 25.6 38.7 101.5 94.2 323.5
08/05 10:30 12.2 76 8.2 8.1 24 46 1013.1 0 18.8 25.7 39.0 102.2 95.1 326.7
08/05 10:20 12.3 76 8.25 8.3 30 44 1013.1 0 18.9 25.8 39.1 102.6 95.6 328.6
08/05 10:10 12.2 77 8.31 8.3 30 41 1013.1 0 19.0 25.9 39.4 103.4 96.5 331.8
08/05 10:00 12.1 79 8.47 8.6 28 52 1013.1 0 19.4 26.2 40.1 105.3 98.8 339.7
08/05 09:50 11.8 81 8.53 8.6 30 43 1013.1 0 19.5 26.4 40.5 106.4 100.0 343.9
08/05 09:40 11.9 80 8.47 8.5 28 46 1013.1 0 19.4 26.2 40.2 105.6 99.1 340.6
08/05 09:30 11.7 80 8.37 8.4 32 65 1013.1 0 19.2 26.1 39.9 104.7 98.0 336.8
08/05 09:20 11.6 79 8.21 8.2 37 48 1013.1 0 18.9 25.9 39.3 103.1 96.0 329.6
08/05 09:10 11.5 83 8.57 8.7 32 43 1013.1 0 19.6 26.5 40.8 107.2 101.0 347.1
08/05 09:00 11.6 82 8.52 8.6 32 59 1013.1 0 19.5 26.4 40.6 106.5 100.1 344.3
08/05 08:50 11.5 82 8.47 8.5 28 39 1013.1 0.6 19.4 26.4 40.4 106.1 99.6 342.4
08/05 08:40 11.6 82 8.52 8.6 43 61 1013.1 0.6 19.5 26.4 40.6 106.5 100.1 344.3
08/05 08:30 11.3 84 8.57 8.7 33 63 1013.1 0.6 19.6 26.6 40.9 107.5 101.2 348.0
08/05 08:20 10.7 89 8.74 8.9 35 50 1013.1 0.6 20.0 27.0 42.0 110.2 104.4 358.9
08/05 08:10 10.5 92 8.92 9.2 35 52 1013.1 0.6 20.4 27.4 42.8 112.5 107.1 368.6
08/05 08:00 11.2 86 8.72 8.9 28 59 1013.1 0.6 20.0 26.9 41.6 109.3 103.4 355.7
08/05 07:50 11.1 87 8.76 9 30 39 1013.1 0.6 20.1 27.0 41.8 109.9 104.1 358.0
08/05 07:40 11 86 8.61 8.7 26 30 1013.1 0.6 19.7 26.7 41.3 108.3 102.2 351.3
08/05 07:30 10.9 86 8.56 8.7 32 76 1013.1 0.6 19.6 26.7 41.1 107.9 101.6 349.3
08/05 07:20 10.6 89 8.69 8.8 30 41 1013.1 0.6 19.9 27.0 41.8 109.8 103.8 357.0
08/05 07:10 10.3 92 8.81 9 22 32 1013.1 0.6 20.2 27.3 42.5 111.6 105.9 364.2
08/05 07:00 10.2 93 8.85 9.1 32 57 1013.1 0.6 20.3 27.4 42.7 112.2 106.6 366.6
08/05 06:50 9.8 96 8.91 9.2 26 35 1013.1 0.6 20.5 27.6 43.2 113.5 108.0 371.5
08/05 06:40 9.7 96 8.85 9.1 24 39 1013.1 0.6 20.3 27.5 43.0 112.9 107.3 369.0
08/05 06:30 10.1 93 8.8 9 26 46 1013.1 0.6 20.2 27.3 42.5 111.8 106.0 364.6
08/05 06:20 10.4 88 8.48 8.5 20 32 1013.1 0.6 19.5 26.7 41.0 107.7 101.2 347.7
08/05 06:10 10.1 91 8.61 8.7 24 37 1013.1 0.6 19.8 27.0 41.7 109.6 103.4 355.4
08/05 06:00 10.7 84 8.25 8.1 26 44 1013.1 0.6 19.0 26.2 39.9 104.8 97.6 335.4
08/05 05:50 11.3 78 7.96 7.6 33 48 1013.1 0.6 18.3 25.6 38.4 100.8 93.0 319.2
08/05 05:40 11.2 79 8.01 7.7 28 39 1013.1 0.6 18.4 25.7 38.7 101.5 93.8 321.9
08/05 05:30 11.1 80 8.06 7.8 28 50 1013.1 0.6 18.6 25.8 38.9 102.1 94.6 324.7
08/05 05:20 11.4 76 7.8 7.3 26 35 1013.1 0.6 18.0 25.3 37.7 99.0 90.7 311.3
08/05 05:10 11.4 76 7.8 7.3 22 41 1013.1 0.6 18.0 25.3 37.7 99.0 90.7 311.3
08/05 05:00 11.3 76 7.75 7.2 28 46 1013.1 0.6 17.9 25.2 37.6 98.5 90.2 309.4
08/05 04:50 11.1 77 7.76 7.2 26 35 1013.1 0.6 17.9 25.3 37.7 98.9 90.5 310.7
08/05 04:40 11.1 74 7.46 6.6 26 39 1013.1 0.6 17.3 24.8 36.5 95.7 86.6 296.8
08/05 04:30 11.5 70 7.23 6.2 24 46 1013.1 0.6 16.8 24.3 35.4 92.8 83.2 284.8
08/05 04:20 11.4 70 7.19 6.1 22 32 1013.1 0.6 16.7 24.3 35.3 92.5 82.7 283.3
08/05 04:10 11.6 69 7.17 6.1 22 32 1013.1 0.6 16.6 24.2 35.2 92.0 82.3 281.7
08/05 04:00 11.3 70 7.14 6 26 43 1013.1 0.6 16.6 24.3 35.2 92.1 82.2 281.4
08/05 03:50 11.2 70 7.1 5.9 26 39 1013.1 0.6 16.5 24.2 35.1 91.8 81.8 280.0
08/05 03:40 11 71 7.11 5.9 24 32 1013.1 0.6 16.5 24.3 35.2 92.1 82.1 281.1
08/05 03:30 11 70 7.01 5.7 24 37 1013.1 0.6 16.3 24.1 34.8 91.1 80.8 276.6
08/05 03:20 10.8 71 7.02 5.7 22 33 1013.1 0.6 16.3 24.2 34.9 91.4 81.2 277.8
08/05 03:10 10.8 71 7.02 5.7 30 43 1013.1 0.6 16.3 24.2 34.9 91.4 81.2 277.8
08/05 03:00 10.7 70 6.88 5.5 22 33 1013.1 0.6 16.0 24.0 34.4 90.0 79.5 271.8
08/05 02:50 10.7 70 6.88 5.4 19 26 1013.1 0.6 16.0 24.0 34.4 90.0 79.5 271.8
08/05 02:40 10.5 70 6.79 5.4 26 35 1013.1 0.6 15.9 23.9 34.1 89.3 78.5 268.4
08/05 02:30 10.6 68 6.64 4.9 20 37 1013.1 0.6 15.5 23.7 33.5 87.7 76.5 261.3
08/05 02:20 10.6 66 6.44 4.5 20 28 1013.1 0.6 15.1 23.3 32.7 85.6 73.9 252.3
08/05 02:10 10.4 66 6.36 4.3 22 28 1013.1 0.6 14.9 23.3 32.5 85.0 73.1 249.4
08/05 02:00 10.3 66 6.32 4.2 22 35 1013.1 0.6 14.9 23.2 32.4 84.7 72.7 247.9
08/05 01:50 10 67 6.3 4.1 20 24 1013.1 0.6 14.8 23.3 32.5 84.8 72.7 248.0
08/05 01:40 9.9 66 6.16 3.8 24 30 1013.1 0.6 14.5 23.1 32.0 83.5 71.0 242.1
08/05 01:30 9.8 66 6.13 3.8 20 28 1013.1 0.6 14.5 23.1 31.9 83.3 70.7 241.0
08/05 01:20 9.6 66 6.05 3.7 19 20 1013.1 0.6 14.3 23.0 31.6 82.6 69.9 238.1
08/05 01:10 9.6 66 6.05 3.5 19 22 1013.1 0.6 14.3 23.0 31.6 82.6 69.9 238.1
08/05 01:00 9.3 67 6.02 3.5 19 28 1013.1 0.6 14.3 23.0 31.7 82.6 69.8 237.6
08/05 00:50 9.3 65 5.84 3.2 17 20 1013.1 0.6 13.9 22.7 31.0 80.8 67.5 229.6
08/05 00:40 9 67 5.91 3.2 19 20 1013.1 0.6 14.0 22.9 31.3 81.8 68.7 233.6
08/05 00:30 8.9 67 5.87 3.1 20 30 1013.1 0.6 14.0 22.9 31.2 81.5 68.2 232.1
08/05 00:20 8.7 67 5.8 2.9 20 24 1013.1 0.6 13.8 22.8 31.0 81.0 67.5 229.6
08/05 00:10 8.5 68 5.81 2.9 20 26 1013.1 0.6 13.8 22.9 31.2 81.3 67.8 230.6
08/05 00:00 8.3 68 5.73 2.8 19 30 1013.1 0.6 13.7 22.8 30.9 80.7 67.0 227.6
07/05 23:50 8.1 69 5.74 2.7 15 19 1013.1 0.6 13.7 22.9 31.0 81.0 67.3 228.6
07/05 23:40 7.9 68 5.59 2.5 17 24 1013.1 0.6 13.4 22.7 30.5 79.7 65.5 222.5
07/05 23:30 7.9 70 5.75 2.8 17 43 1013.1 0.6 13.7 23.0 31.2 81.3 67.6 229.7
07/05 23:20 7.9 68 5.59 2.5 17 20 1013.1 0.6 13.4 22.7 30.5 79.7 65.5 222.5
07/05 23:10 7.8 69 5.63 2.6 19 32 1013.1 0.6 13.5 22.8 30.7 80.2 66.1 224.6
07/05 23:00 7.7 72 5.84 3 15 24 1013.1 0.6 13.9 23.1 31.6 82.4 68.9 234.3
07/05 22:50 7.6 71 5.72 2.8 15 22 1013.1 0.6 13.7 23.0 31.2 81.3 67.4 229.2
07/05 22:40 7.6 71 5.72 2.8 17 26 1013.1 0.6 13.7 23.0 31.2 81.3 67.4 229.2
07/05 22:30 7.6 73 5.88 3.1 15 26 1013.1 0.6 14.0 23.2 31.8 83.0 69.5 236.4
07/05 22:20 7.5 73 5.85 3.1 17 20 1013.1 0.6 14.0 23.2 31.7 82.8 69.2 235.4
07/05 22:10 7.4 75 5.97 3.2 11 17 1013.1 0.6 14.2 23.4 32.2 84.1 70.9 241.1
07/05 22:00 7.4 76 6.05 3.5 15 28 1013.1 0.6 14.4 23.6 32.5 85.0 71.9 244.8
07/05 21:50 7.4 77 6.13 3.6 19 22 1013.1 0.6 14.6 23.7 32.8 85.8 72.9 248.4
07/05 21:40 7.2 79 6.2 3.9 15 26 1013.1 0.6 14.7 23.9 33.2 86.8 74.0 252.3
07/05 21:30 7.2 80 6.28 4 19 32 1013.1 0.6 14.9 24.0 33.5 87.6 75.1 256.0
07/05 21:20 7.1 81 6.32 4 15 19 1013.1 0.6 15.0 24.1 33.7 88.2 75.7 258.2
07/05 21:10 7.1 81 6.32 4 19 24 1013.1 0.6 15.0 24.1 33.7 88.2 75.7 258.2
07/05 21:00 7.1 81 6.32 4.1 17 28 1013.1 0.6 15.0 24.1 33.7 88.2 75.7 258.2
07/05 20:50 7.1 81 6.32 4 19 28 1013.1 0.6 15.0 24.1 33.7 88.2 75.7 258.2
07/05 20:40 7 81 6.28 3.9 19 24 1013.1 0.6 14.9 24.0 33.6 87.9 75.3 256.6
07/05 20:30 7.1 80 6.24 3.9 19 28 1013.1 0.6 14.8 23.9 33.4 87.3 74.7 254.5
07/05 20:20 7.1 79 6.16 3.7 24 35 1013.1 0.6 14.6 23.8 33.1 86.5 73.6 250.8
07/05 20:10 7.1 79 6.16 3.7 19 22 1013.1 0.6 14.6 23.8 33.1 86.5 73.6 250.8
07/05 20:00 7 80 6.2 3.8 19 32 1013.1 0.6 14.7 23.9 33.3 87.0 74.2 252.9

Last Refresh: 08-May-2026 12:07:29

Bureau of Meteorology